Mid Delta Regional Airport
KGLH : rendu visible

Aérodrome :











RETROUVEZ-NOUS SUR...

 
LOGIN :

S'inscrire | Disclaimer

   EN    FR    IT 

 









Légende :    VFR   VFR Marginal   IFR   IFR Intensif   IFR Très Intensif
Visi : 
Plafond : 
>= 8 km
>= 3000ft
5 à 8 km
1000 à 3000 ft
1500m à 5 km
500 à 1000 ft
800 à 1500m
200 à 500 ft
< 800m
< 200 ft
Symboles :   Orages  Brouillard  Fortes neiges  Fortes précipitations  Vent > 20 kt






- Altitude de l'aérodrome : 131 ft
- Code IATA : GLH


KGLH - Mid Delta Regional

DERNIER METAR :
  • 170353Z AUTO 12003KT 1 1/4SM BR CLR 09/08 A3001 RMK AO2 SLP169 T00940083

METARs EXPIRÉS :
  • 170341Z AUTO 12003KT 1 3/4SM BR CLR 09/08 A3001 RMK AO2 T00940083
  • 170253Z AUTO 00000KT 10SM CLR 11/09 A3002 RMK AO2 SLP173 T01060094 53001
  • 170153Z AUTO 00000KT 10SM SCT024 12/10 A3002 RMK AO2 SLP173 T01170100

TAF KGLH
Valide du 17 à 00h jusqu'au 18 à 00h UTC


162342Z 1700/1724 12006KT P6SM BKN015
FM170500 14006KT 6SM BR OVC006
FM170900 13005KT 6SM BR OVC004
FM171400 15007KT 5SM BR OVC007
FM171700 16010G20KT P6SM OVC007
FM172100 16011G19KT P6SM BKN010



MET'MAP, la Météo Aéronautique d'un coup d'oeil ! - Copyright ORBIFLY Décembre 2007 - Disclaimer

ORBIFLY MET'MAP TEAM :

Programmation & Développement : Alexandra Zaïnal
Sur une idée originale de : Baudouin d'Aumeries
Assistance à la programmation : Marc-Olivier Méhu
Soutien technique & logistique : Manuel Goepfert

Contact : metmap@orbifly.com




SOURCES & CREDITS :

   NOAA       Earth
Advisory